Time;durP1;ratioP1;P1;durP2;ratioP2;P2;SDS_P1;SDS_P2;PMS_P1;PMS_P2;Temp;Humidity;BMP_temperature;BMP_pressure;BME280_temperature;BME280_humidity;BME280_pressure;Samples;Min_cycle;Max_cycle;Signal;HPM_P1;HPM_P2
2023/03/26 00:01:22;;;;;;;7.15;1.98;;;7.60;99.90;;;-144.05;80.21;56942.28;5016328;28;20037;-79
2023/03/26 00:03:54;;;;;;;11.60;2.50;;;7.60;99.90;;;-144.05;80.07;56980.53;5014572;28;20144;-81
2023/03/26 00:06:35;;;;;;;7.13;2.28;;;7.60;99.90;;;-144.05;80.79;56967.78;5016141;28;20028;-80
2023/03/26 00:09:03;;;;;;;9.60;2.50;;;7.70;99.90;;;-144.05;80.43;56980.53;5015892;28;20029;-82
2023/03/26 00:11:29;;;;;;;12.75;2.92;;;7.70;99.90;;;-144.05;80.40;56963.53;5015389;28;20436;-81
2023/03/26 00:13:57;;;;;;;11.63;2.78;;;7.80;99.90;;;-144.05;80.50;56972.03;4998110;28;20022;-80
2023/03/26 00:16:28;;;;;;;12.00;3.28;;;7.80;99.90;;;-144.05;80.04;56972.03;4998625;28;20022;-81
2023/03/26 00:18:56;;;;;;;9.95;2.88;;;7.80;99.90;;;-144.05;79.77;56972.03;5016576;28;20018;-79
2023/03/26 00:21:27;;;;;;;14.20;2.83;;;7.80;99.90;;;-144.05;79.58;56944.41;5016616;28;20036;-79
2023/03/26 00:24:05;;;;;;;13.68;3.20;;;7.80;99.90;;;-144.05;80.42;56982.66;4997643;28;20022;-79
2023/03/26 00:26:37;;;;;;;10.95;3.75;;;7.80;99.90;;;-144.05;80.33;56976.28;5016318;28;20029;-81
2023/03/26 00:29:05;;;;;;;12.40;3.17;;;7.90;99.90;;;-144.05;80.16;56965.66;4997726;28;20058;-81
2023/03/26 00:31:32;;;;;;;10.68;2.72;;;7.90;99.90;;;-144.05;80.62;56978.41;5015014;28;20086;-81
2023/03/26 00:34:01;;;;;;;13.75;3.38;;;7.90;99.90;;;-144.05;80.37;56969.91;5015102;28;20481;-82
2023/03/26 00:36:28;;;;;;;17.40;3.70;;;7.90;99.90;;;-144.05;80.50;56972.03;5015068;28;20545;-79
2023/03/26 00:38:54;;;;;;;18.85;4.07;;;7.90;99.90;;;-144.05;80.61;56967.78;5014654;28;20109;-80
2023/03/26 00:41:24;;;;;;;17.10;3.40;;;8.00;99.90;;;-144.05;80.58;56965.66;4997076;28;20076;-80
2023/03/26 00:43:58;;;;;;;14.00;3.53;;;8.00;99.90;;;-144.05;79.99;56952.91;5014792;28;20025;-80
2023/03/26 00:46:27;;;;;;;22.65;3.38;;;8.00;99.90;;;-144.05;79.80;56950.78;5014978;28;20026;-81
2023/03/26 00:48:57;;;;;;;21.88;4.18;;;8.00;99.90;;;-144.05;79.61;56967.78;5014619;28;20083;-82
2023/03/26 00:51:24;;;;;;;25.77;3.50;;;8.00;99.90;;;-144.05;80.13;56967.78;5015034;28;20033;-79
2023/03/26 00:53:50;;;;;;;15.95;3.38;;;8.00;99.90;;;-144.05;79.67;56972.03;5014831;28;20030;-79
2023/03/26 00:56:17;;;;;;;13.88;3.38;;;8.00;99.90;;;-144.05;79.13;56969.91;5015385;28;20030;-81
2023/03/26 00:58:44;;;;;;;18.10;3.33;;;8.00;99.90;;;-144.05;79.43;56961.41;5015485;28;20037;-77
2023/03/26 01:01:17;;;;;;;14.13;4.40;;;8.00;99.90;;;-144.05;79.26;56991.13;5016789;28;20036;-82
2023/03/26 01:03:45;;;;;;;15.05;3.70;;;8.00;99.90;;;-144.05;79.63;56982.66;5017770;28;20026;-80
2023/03/26 01:06:34;;;;;;;22.15;3.53;;;8.00;99.90;;;-144.05;79.79;56984.78;5017350;28;20030;-81
2023/03/26 01:09:31;;;;;;;14.88;3.70;;;8.00;99.90;;;-144.05;79.63;56980.53;5015790;28;20021;-81
2023/03/26 01:12:00;;;;;;;21.73;4.15;;;7.90;99.90;;;-144.05;79.33;56959.28;5015409;28;20052;-83
2023/03/26 01:14:28;;;;;;;24.30;4.03;;;7.90;99.90;;;-144.05;78.85;56967.78;5027191;28;20049;-80
2023/03/26 01:17:05;;;;;;;15.88;3.08;;;7.90;99.90;;;-144.05;79.07;56952.91;5017347;28;20030;-81
2023/03/26 01:19:57;;;;;;;27.20;4.00;;;7.90;99.90;;;-144.05;79.45;56974.16;5016696;28;20096;-78
2023/03/26 01:22:26;;;;;;;21.33;3.88;;;7.90;99.90;;;-144.05;78.79;56948.66;5015469;28;20025;-81
2023/03/26 01:24:55;;;;;;;17.67;4.10;;;7.90;99.90;;;-144.05;79.38;56976.28;5016066;28;20032;-81
2023/03/26 01:27:30;;;;;;;34.38;5.53;;;8.00;99.90;;;-144.05;79.49;56972.03;4998863;28;20026;-82
2023/03/26 01:30:23;;;;;;;20.05;4.00;;;8.00;99.90;;;-144.05;79.37;56944.41;4999467;28;20053;-82
2023/03/26 01:33:32;;;;;;;25.20;3.60;;;8.00;99.90;;;-144.05;79.24;56974.16;4999010;28;20030;-79
2023/03/26 01:36:16;;;;;;;20.25;4.75;;;8.00;99.90;;;-144.05;78.11;56965.66;5017017;28;20038;-79
2023/03/26 01:38:59;;;;;;;23.10;3.92;;;8.10;99.90;;;-144.05;77.90;56969.91;5017027;28;20026;-81
2023/03/26 01:41:50;;;;;;;23.90;3.58;;;8.00;99.90;;;-144.05;77.95;56961.41;5026412;28;20030;-78
2023/03/26 01:44:43;;;;;;;20.98;3.97;;;8.10;99.90;;;-144.05;78.00;56963.53;5034422;28;20030;-79
2023/03/26 01:47:12;;;;;;;30.58;4.57;;;8.00;99.90;;;-144.05;77.08;56961.41;5014302;28;20038;-81
2023/03/26 01:49:38;;;;;;;28.70;4.03;;;8.00;99.90;;;-144.05;77.26;56957.16;5031895;28;20026;-78
2023/03/26 01:52:23;;;;;;;21.33;4.47;;;8.00;99.90;;;-144.05;77.41;56963.53;5035869;28;20026;-79
2023/03/26 01:54:51;;;;;;;32.53;4.70;;;8.00;99.90;;;-144.05;77.47;56967.78;5029713;28;20026;-82
2023/03/26 01:57:54;;;;;;;25.77;4.00;;;8.00;99.90;;;-144.05;77.09;56957.16;4999858;28;20026;-77
2023/03/26 02:00:54;;;;;;;24.58;4.57;;;8.00;99.90;;;-144.05;77.24;56959.28;4999511;28;20029;-79
2023/03/26 02:03:37;;;;;;;24.30;4.75;;;8.10;99.90;;;-144.05;76.68;56969.91;5017098;28;20026;-79
2023/03/26 02:06:29;;;;;;;21.90;4.20;;;8.10;99.90;;;-144.05;76.30;56969.91;5019679;28;20030;-79
2023/03/26 02:09:13;;;;;;;23.08;4.20;;;8.10;99.90;;;-144.05;76.24;56967.78;5036587;28;20029;-79
2023/03/26 02:11:40;;;;;;;19.13;5.18;;;8.20;99.90;;;-144.05;76.24;56959.28;5019569;28;20040;-80
2023/03/26 02:14:08;;;;;;;29.90;3.72;;;8.10;99.90;;;-144.05;76.50;56976.28;5001444;28;20440;-82
2023/03/26 02:16:34;;;;;;;22.55;4.35;;;8.00;99.90;;;-144.05;76.25;56991.13;5000836;28;20097;-81
2023/03/26 02:19:03;;;;;;;27.73;4.45;;;8.00;99.90;;;-144.05;76.10;56963.53;5018560;28;20080;-81
2023/03/26 02:21:32;;;;;;;33.45;5.25;;;8.00;99.90;;;-144.05;76.44;56963.53;5018171;28;20049;-80
2023/03/26 02:24:01;;;;;;;24.38;4.45;;;8.00;99.90;;;-144.05;76.72;56965.66;5017690;28;20030;-81
2023/03/26 02:26:31;;;;;;;33.10;4.68;;;8.00;99.90;;;-144.05;76.34;56961.41;4999523;28;20076;-80
2023/03/26 02:29:00;;;;;;;22.40;4.00;;;8.00;99.90;;;-144.05;76.36;56972.03;5017199;28;20037;-79
2023/03/26 02:31:26;;;;;;;30.35;4.85;;;8.00;99.90;;;-144.05;76.00;56955.03;5016433;28;20555;-79
2023/03/26 02:33:54;;;;;;;31.17;4.70;;;8.00;99.90;;;-144.05;76.08;56967.78;5016626;28;20045;-79
2023/03/26 02:36:26;;;;;;;30.45;5.05;;;8.00;99.90;;;-144.05;75.95;56955.03;5017041;28;20033;-78
2023/03/26 02:38:54;;;;;;;28.23;4.82;;;8.00;99.90;;;-144.05;76.35;56989.00;4998588;28;20378;-78
2023/03/26 02:41:20;;;;;;;27.33;5.25;;;7.90;99.90;;;-144.05;76.56;56972.03;5016578;28;20037;-80
2023/03/26 02:43:46;;;;;;;27.00;3.58;;;7.90;99.90;;;-144.05;76.59;56991.13;5017205;28;20156;-79
2023/03/26 02:46:12;;;;;;;33.95;6.35;;;7.90;99.90;;;-144.05;76.82;56961.41;5017073;28;20053;-79
2023/03/26 02:48:40;;;;;;;25.67;4.50;;;7.90;99.90;;;-144.05;76.35;56959.28;5015954;28;20026;-78
2023/03/26 02:51:06;;;;;;;25.75;4.88;;;7.80;99.90;;;-144.05;76.90;56967.78;5016102;28;20048;-78
2023/03/26 02:53:32;;;;;;;26.27;4.07;;;7.80;99.90;;;-144.05;76.76;56963.53;5016658;28;20116;-78
2023/03/26 02:55:59;;;;;;;29.98;4.95;;;7.70;99.90;;;-144.05;77.68;56976.28;4999233;28;20112;-79
2023/03/26 02:58:28;;;;;;;25.75;4.25;;;7.70;99.90;;;-144.05;77.98;56984.78;4998381;28;20036;-80
2023/03/26 03:00:55;;;;;;;28.33;4.88;;;7.80;99.90;;;-144.05;77.86;56974.16;5016784;28;20037;-80
2023/03/26 03:03:26;;;;;;;28.70;4.97;;;7.80;99.90;;;-144.05;77.88;56989.00;5017036;28;20540;-77
2023/03/26 03:05:54;;;;;;;30.38;5.28;;;7.90;99.90;;;-144.05;78.05;56995.38;4998793;28;20140;-79
2023/03/26 03:08:25;;;;;;;25.77;4.57;;;9.20;99.90;;;-144.05;77.89;56997.50;5014496;28;20105;-78
2023/03/26 03:11:14;;;;;;;28.27;4.95;;;7.80;99.90;;;-144.05;78.55;56991.13;5017175;28;20438;-78
2023/03/26 03:13:42;;;;;;;27.80;4.95;;;7.80;99.90;;;-144.05;78.49;56984.78;5015816;28;20030;-78
2023/03/26 03:16:09;;;;;;;24.88;5.05;;;7.80;99.90;;;-144.05;78.05;56972.03;5016933;28;20053;-80
2023/03/26 03:18:36;;;;;;;29.08;5.15;;;7.90;99.90;;;-144.05;77.15;56961.41;5015465;28;20026;-78
2023/03/26 03:21:05;;;;;;;29.85;4.78;;;7.90;99.90;;;-144.05;76.56;56976.28;5016150;28;20405;-79
2023/03/26 03:23:31;;;;;;;20.75;4.28;;;7.90;99.90;;;-144.05;76.67;56967.78;4998644;28;20025;-80
2023/03/26 03:25:57;;;;;;;30.02;4.20;;;7.90;99.90;;;-144.05;76.99;56955.03;5015738;28;20442;-79
2023/03/26 03:28:25;;;;;;;27.75;4.45;;;8.30;99.90;;;-144.05;76.93;56957.16;4998930;28;20026;-78
2023/03/26 03:30:56;;;;;;;23.40;3.63;;;7.90;99.90;;;-144.05;76.88;56982.66;5014334;28;20521;-79
2023/03/26 03:33:22;;;;;;;24.55;4.22;;;7.90;99.90;;;-144.05;76.80;56980.53;5014582;28;20030;-79
2023/03/26 03:35:49;;;;;;;30.83;4.57;;;7.90;99.90;;;-144.05;77.04;56984.78;5014626;28;20083;-79
2023/03/26 03:38:16;;;;;;;22.85;4.38;;;7.90;99.90;;;-144.05;76.95;56984.78;5014344;28;20128;-79
2023/03/26 03:40:43;;;;;;;30.17;4.05;;;7.80;99.90;;;-144.05;77.08;56959.28;4997433;28;20065;-78
2023/03/26 03:43:09;;;;;;;23.85;3.72;;;7.80;99.90;;;-144.05;77.28;56957.16;5014121;28;20033;-78
2023/03/26 03:45:35;;;;;;;24.05;3.78;;;7.80;99.90;;;-144.05;76.91;56976.28;4996332;28;20041;-78
2023/03/26 03:48:01;;;;;;;34.28;4.45;;;8.50;99.90;;;-144.05;76.95;56976.28;5013452;28;20030;-78
2023/03/26 03:50:27;;;;;;;30.52;4.53;;;7.60;99.90;;;-144.05;76.52;57001.75;4996101;28;20099;-78
2023/03/26 03:52:53;;;;;;;30.40;4.97;;;7.80;99.90;;;-144.05;77.22;56969.91;5013324;28;20042;-77
2023/03/26 03:55:18;;;;;;;23.52;4.25;;;7.50;99.90;;;-144.05;77.53;56989.00;5013667;28;20025;-79
2023/03/26 03:57:45;;;;;;;23.10;4.95;;;7.40;99.90;;;-144.05;77.68;56980.53;4996311;28;20516;-78
2023/03/26 04:00:13;;;;;;;29.05;5.20;;;7.30;99.90;;;-144.05;77.93;56982.66;5014272;28;20030;-78
2023/03/26 04:02:41;;;;;;;25.80;5.28;;;7.20;99.90;;;-144.05;78.80;56967.78;5014352;28;20401;-78
2023/03/26 04:05:10;;;;;;;31.17;4.97;;;7.20;99.90;;;-144.05;79.00;56984.78;5014570;28;20022;-79
2023/03/26 04:07:36;;;;;;;30.17;4.05;;;7.10;99.90;;;-144.05;79.47;56963.53;5014279;28;20041;-77
2023/03/26 04:10:03;;;;;;;28.67;5.10;;;7.00;99.90;;;-144.05;79.90;56963.53;4996653;28;20041;-79
2023/03/26 04:12:30;;;;;;;27.23;4.75;;;7.00;99.90;;;-144.05;79.78;56959.28;4996598;28;20095;-77
2023/03/26 04:14:58;;;;;;;23.63;3.90;;;7.00;99.90;;;-144.05;79.87;56980.53;5014397;28;20420;-79
2023/03/26 04:17:25;;;;;;;22.52;4.35;;;7.00;99.90;;;-144.05;80.51;56965.66;5014371;28;20033;-79
2023/03/26 04:19:53;;;;;;;28.50;5.43;;;7.00;99.90;;;-144.05;80.24;56984.78;5013983;28;20034;-77
2023/03/26 04:22:20;;;;;;;24.30;3.60;;;7.00;99.90;;;-144.05;80.67;56991.13;5013515;28;20026;-78
2023/03/26 04:24:48;;;;;;;34.65;5.18;;;7.00;99.90;;;-144.05;79.54;56980.53;5013634;28;20030;-80
2023/03/26 04:27:23;;;;;;;29.02;4.72;;;7.10;99.90;;;-144.05;79.25;56980.53;5013887;28;20029;-77
2023/03/26 04:29:49;;;;;;;30.00;3.95;;;7.00;99.90;;;-144.05;80.15;56976.28;4996530;28;20060;-76
2023/03/26 04:32:28;;;;;;;24.77;4.20;;;7.00;99.90;;;-144.05;79.90;56986.91;5026365;28;20056;-79
2023/03/26 04:34:59;;;;;;;18.55;4.63;;;7.00;99.90;;;-144.05;79.33;56980.53;5018768;28;20030;-81
2023/03/26 04:37:38;;;;;;;25.42;4.68;;;7.00;99.90;;;-144.05;78.55;57003.88;5013042;28;20486;-81
2023/03/26 04:40:18;;;;;;;24.95;4.53;;;7.00;99.90;;;-144.05;78.16;56995.38;5014082;28;20049;-81
2023/03/26 04:42:46;;;;;;;32.65;5.50;;;7.00;99.90;;;-144.05;77.84;56995.38;4995687;28;20448;-81
2023/03/26 04:45:21;;;;;;;23.55;3.90;;;7.00;99.90;;;-144.05;78.16;56982.66;4995828;28;20042;-81
2023/03/26 04:47:49;;;;;;;26.67;4.80;;;7.00;99.90;;;-144.05;78.08;56974.16;4996702;28;20029;-80
2023/03/26 04:50:15;;;;;;;22.13;4.05;;;7.00;99.90;;;-144.05;77.57;56980.53;5013759;28;20033;-80
2023/03/26 04:52:41;;;;;;;29.48;4.38;;;7.00;99.90;;;-144.05;77.38;56997.50;4996357;28;20045;-80
2023/03/26 04:55:24;;;;;;;21.95;3.67;;;7.00;99.90;;;-144.05;77.17;56980.53;5014083;28;20306;-78
2023/03/26 04:57:58;;;;;;;15.02;3.03;;;7.00;99.90;;;-144.05;77.75;56978.41;5013342;28;20043;-79
2023/03/26 05:00:27;;;;;;;22.83;4.03;;;7.00;99.90;;;-144.05;77.86;56974.16;5057735;22;20127;-77
2023/03/26 05:02:54;;;;;;;30.88;5.47;;;7.10;99.90;;;-144.05;77.78;56984.78;5020479;28;20033;-78
2023/03/26 05:05:21;;;;;;;18.05;4.22;;;7.10;99.90;;;-144.05;77.14;56972.03;5038661;28;20041;-77
2023/03/26 05:07:47;;;;;;;16.98;3.30;;;7.10;99.90;;;-144.05;77.34;56980.53;5037329;28;20052;-75
2023/03/26 05:10:15;;;;;;;19.30;4.45;;;7.20;99.90;;;-144.05;77.31;56965.66;5051981;28;20025;-77
2023/03/26 05:12:42;;;;;;;21.98;3.67;;;7.20;99.90;;;-144.05;76.91;56967.78;5038893;28;20032;-77
2023/03/26 05:15:11;;;;;;;32.03;5.78;;;7.20;99.90;;;-144.05;76.62;56989.00;5056753;28;20112;-78
2023/03/26 05:17:40;;;;;;;19.20;3.55;;;7.20;99.90;;;-144.05;76.64;56978.41;5057030;28;20029;-76
2023/03/26 05:20:19;;;;;;;18.52;4.18;;;7.20;99.90;;;-144.05;76.56;56976.28;5058140;28;20025;-79
2023/03/26 05:22:47;;;;;;;15.57;4.03;;;7.20;99.90;;;-144.05;76.44;56980.53;5058124;28;20025;-79
2023/03/26 05:25:13;;;;;;;19.90;3.13;;;7.20;99.90;;;-144.05;76.34;56997.50;5057873;28;20123;-79
2023/03/26 05:27:39;;;;;;;25.05;3.83;;;7.20;99.90;;;-144.05;76.82;56997.50;5040886;28;20031;-77
2023/03/26 05:30:07;;;;;;;21.75;4.03;;;7.20;99.90;;;-144.05;76.90;56980.53;5039779;28;20055;-78
2023/03/26 05:32:33;;;;;;;15.48;3.30;;;7.30;99.90;;;-144.05;76.88;56974.16;5039509;28;20373;-77
2023/03/26 05:34:59;;;;;;;23.20;4.28;;;7.30;99.90;;;-144.05;76.66;56967.78;5039266;28;20051;-76
2023/03/26 05:37:29;;;;;;;24.67;4.10;;;7.30;99.90;;;-144.05;76.85;56959.28;5039865;28;20084;-78
2023/03/26 05:39:56;;;;;;;23.58;4.13;;;7.30;99.90;;;-144.05;76.56;56955.03;5057702;28;20052;-79
2023/03/26 05:42:22;;;;;;;25.23;5.18;;;7.30;99.90;;;-144.05;76.37;56946.53;5039746;28;20120;-77
2023/03/26 05:44:48;;;;;;;25.83;4.45;;;7.30;99.90;;;-144.05;76.56;56993.25;5040493;28;20021;-78
2023/03/26 05:47:14;;;;;;;21.00;3.72;;;7.40;99.90;;;-144.05;75.86;56976.28;5058498;28;20392;-79
2023/03/26 05:49:40;;;;;;;17.13;3.75;;;7.40;99.90;;;-144.05;75.90;56969.91;5057692;28;20035;-78
2023/03/26 05:52:07;;;;;;;20.38;4.55;;;7.40;99.90;;;-144.05;75.82;56980.53;5040048;28;20035;-79
2023/03/26 05:54:32;;;;;;;16.95;3.58;;;7.40;99.90;;;-144.05;75.89;56999.63;5057706;28;20029;-78
2023/03/26 05:56:59;;;;;;;20.65;3.42;;;7.40;99.90;;;-144.05;75.59;56980.53;5057556;28;20487;-79
2023/03/26 05:59:25;;;;;;;24.13;4.30;;;7.40;99.90;;;-144.05;75.55;56993.25;5039225;28;20053;-78
2023/03/26 06:01:53;;;;;;;24.67;4.10;;;7.50;99.90;;;-144.05;75.23;56972.03;5058066;28;20068;-79
2023/03/26 06:04:20;;;;;;;19.38;3.65;;;7.50;99.90;;;-144.05;75.00;56972.03;5057930;28;20088;-78
2023/03/26 06:06:46;;;;;;;20.40;3.63;;;7.50;99.90;;;-144.05;74.86;56969.91;5040874;28;20029;-76
2023/03/26 06:09:12;;;;;;;25.23;3.78;;;7.60;99.90;;;-144.05;74.70;56969.91;5053516;28;20060;-76
2023/03/26 06:11:39;;;;;;;21.52;4.35;;;7.60;99.90;;;-144.05;74.81;56944.41;5052482;28;20064;-76
2023/03/26 06:14:06;;;;;;;22.70;3.60;;;7.60;99.90;;;-144.05;74.66;56967.78;5052413;28;20021;-76
2023/03/26 06:16:32;;;;;;;26.83;3.60;;;7.60;99.90;;;-144.05;74.95;56963.53;5052435;28;20057;-76
2023/03/26 06:18:58;;;;;;;18.70;4.47;;;7.70;99.90;;;-144.05;74.92;56976.28;5051648;28;20025;-77
2023/03/26 06:21:26;;;;;;;17.52;3.08;;;7.60;99.90;;;-144.05;74.56;56972.03;5052779;28;20035;-77
2023/03/26 06:23:52;;;;;;;20.60;3.15;;;7.70;99.90;;;-144.05;74.23;56959.28;5034106;28;20057;-76
2023/03/26 06:26:19;;;;;;;18.50;3.22;;;7.70;99.90;;;-144.05;74.11;56976.28;5050674;28;20221;-76
2023/03/26 06:28:45;;;;;;;16.50;3.75;;;7.70;99.90;;;-144.05;74.02;56961.41;5033956;28;20116;-77
2023/03/26 06:31:11;;;;;;;15.80;2.50;;;7.80;99.90;;;-144.05;73.70;56972.03;5050911;28;20163;-79
2023/03/26 06:33:37;;;;;;;16.35;3.00;;;7.80;99.90;;;-144.05;74.22;56944.41;5050420;28;20130;-76
2023/03/26 06:36:03;;;;;;;16.63;2.88;;;7.80;99.90;;;-144.05;73.56;56965.66;5032961;28;20033;-76
2023/03/26 06:38:29;;;;;;;18.58;3.67;;;7.80;99.90;;;-144.05;74.25;56989.00;5054298;28;20377;-77
2023/03/26 06:41:05;;;;;;;16.52;3.38;;;7.80;99.90;;;-144.05;74.32;56972.03;5055212;28;20035;-75
2023/03/26 06:43:32;;;;;;;19.92;3.55;;;7.90;99.90;;;-144.05;74.40;56967.78;5037220;28;20029;-77
2023/03/26 06:46:00;;;;;;;22.60;3.20;;;7.90;99.90;;;-144.05;74.36;56959.28;5054853;28;20025;-77
2023/03/26 06:48:26;;;;;;;18.85;3.10;;;7.90;99.90;;;-144.05;74.48;56995.38;5054676;28;20025;-77
2023/03/26 06:50:53;;;;;;;22.40;3.55;;;7.90;99.90;;;-144.05;74.65;56982.66;5054540;28;20436;-77
2023/03/26 06:53:19;;;;;;;16.08;3.40;;;7.90;99.90;;;-144.05;74.33;56976.28;5054909;28;20029;-77
2023/03/26 06:55:45;;;;;;;18.27;3.30;;;7.90;99.90;;;-144.05;73.87;56984.78;5037348;28;20032;-74
2023/03/26 06:58:13;;;;;;;17.85;3.78;;;7.90;99.90;;;-144.05;73.99;56980.53;5053724;28;20029;-76
2023/03/26 07:00:41;;;;;;;19.63;2.70;;;8.00;99.90;;;-144.05;74.16;56942.28;5053506;28;20044;-76
2023/03/26 07:03:07;;;;;;;15.40;2.90;;;8.00;99.90;;;-144.05;73.91;56967.78;5054057;28;20029;-76
2023/03/26 07:05:33;;;;;;;14.43;3.53;;;8.00;99.90;;;-144.05;74.19;57001.75;5054216;28;20052;-77
2023/03/26 07:07:59;;;;;;;17.63;3.05;;;8.00;99.90;;;-144.05;74.21;56950.78;5053858;28;20050;-76
2023/03/26 07:10:25;;;;;;;17.60;3.38;;;8.10;99.90;;;-144.05;73.98;56959.28;5055795;28;20020;-77
2023/03/26 07:12:52;;;;;;;20.55;3.20;;;8.10;99.90;;;-144.05;74.39;56950.78;5055274;28;20033;-77
2023/03/26 07:15:18;;;;;;;16.48;3.13;;;8.10;99.90;;;-144.05;73.79;56961.41;5056099;28;20064;-77
2023/03/26 07:17:44;;;;;;;13.25;3.38;;;8.10;99.90;;;-144.05;74.12;56972.03;5037824;28;20036;-77
2023/03/26 07:20:11;;;;;;;12.93;2.83;;;8.10;99.90;;;-144.05;73.94;56959.28;5053461;28;20033;-77
2023/03/26 07:22:37;;;;;;;17.65;3.45;;;8.10;99.90;;;-144.05;73.23;56986.91;5036975;28;20033;-77
2023/03/26 07:25:06;;;;;;;10.52;2.55;;;8.20;99.90;;;-144.05;73.79;56961.41;5054523;28;20025;-77
2023/03/26 07:28:10;;;;;;;15.77;3.40;;;8.20;99.90;;;-144.05;74.63;56997.50;5035803;28;20064;-77
2023/03/26 07:30:59;;;;;;;21.38;4.78;;;8.20;99.90;;;-144.05;74.70;56959.28;5055576;28;20029;-77
2023/03/26 07:33:30;;;;;;;13.57;3.40;;;8.20;99.90;;;-144.05;74.64;56974.16;5055102;28;20021;-77
2023/03/26 07:37:22;;;;;;;11.90;2.78;;;8.20;99.90;;;-144.05;74.81;56946.53;5055983;28;20029;-75
2023/03/26 07:40:03;;;;;;;17.23;4.00;;;8.20;99.90;;;-144.05;74.48;56989.00;4954894;28;20110;-76
2023/03/26 07:43:02;;;;;;;22.52;4.25;;;8.20;99.90;;;-144.05;75.77;56967.78;5044230;28;20229;-76
2023/03/26 07:45:41;;;;;;;12.73;2.85;;;8.10;99.90;;;-144.05;75.92;56952.91;5055314;28;20029;-78
2023/03/26 07:48:24;;;;;;;18.73;2.88;;;8.10;99.90;;;-144.05;75.63;56965.66;5053582;28;20048;-77
2023/03/26 07:50:51;;;;;;;19.42;3.08;;;8.10;99.90;;;-144.05;76.12;56984.78;5055693;28;20025;-77
2023/03/26 07:53:17;;;;;;;13.20;3.00;;;8.20;99.90;;;-144.05;76.12;56967.78;5056660;28;20044;-75
2023/03/26 07:56:15;;;;;;;17.20;3.60;;;8.20;99.90;;;-144.05;76.60;56976.28;5037851;28;20110;-76
2023/03/26 07:58:47;;;;;;;10.18;2.63;;;8.20;99.90;;;-144.05;77.46;56997.50;5054413;28;20029;-75
2023/03/26 08:01:41;;;;;;;17.15;3.30;;;8.10;99.90;;;-144.05;77.25;56963.53;5055432;28;20029;-78
2023/03/26 08:05:17;;;;;;;10.90;2.58;;;8.10;99.90;;;-144.05;77.03;56957.16;5055946;28;20516;-75
2023/03/26 08:08:31;;;;;;;14.88;2.95;;;8.20;99.90;;;-144.05;77.72;56963.53;5056897;28;20396;-76
2023/03/26 08:11:42;;;;;;;18.85;3.20;;;8.20;99.90;;;-144.05;77.56;56959.28;5038880;28;20083;-77
2023/03/26 08:14:28;;;;;;;14.48;3.00;;;8.20;99.90;;;-144.05;78.07;56961.41;5056003;28;20498;-76
2023/03/26 08:17:41;;;;;;;16.35;3.13;;;8.20;99.90;;;-144.05;77.78;56942.28;5056713;28;20029;-75
2023/03/26 08:20:49;;;;;;;14.88;3.17;;;8.30;99.90;;;-144.05;78.24;56974.16;5032858;28;20045;-75
2023/03/26 08:23:54;;;;;;;23.92;3.83;;;8.30;99.90;;;-144.05;77.66;56976.28;4976586;28;20478;-78
2023/03/26 08:26:47;;;;;;;20.40;4.28;;;8.40;99.90;;;-144.05;77.45;56974.16;5058743;28;20029;-76
2023/03/26 08:29:50;;;;;;;14.27;3.47;;;8.40;99.90;;;-144.05;77.63;56995.38;5055733;28;20025;-78
2023/03/26 08:32:19;;;;;;;19.25;3.35;;;8.40;99.90;;;-144.05;77.64;56989.00;5037749;28;20385;-77
2023/03/26 08:34:45;;;;;;;14.00;2.95;;;8.40;99.90;;;-144.05;77.81;56952.91;5038183;28;20554;-77
2023/03/26 08:37:12;;;;;;;13.70;3.35;;;8.40;99.90;;;-144.05;78.38;56952.91;5054853;28;20427;-77
2023/03/26 08:39:38;;;;;;;18.80;3.88;;;8.40;99.90;;;-144.05;77.92;56978.41;5055131;28;20259;-78
2023/03/26 08:43:17;;;;;;;15.20;3.45;;;8.40;99.90;;;-144.05;77.77;56974.16;5055041;28;20139;-78
2023/03/26 08:46:31;;;;;;;9.93;2.83;;;8.40;99.90;;;-144.05;77.65;56986.91;5027080;28;20041;-77
2023/03/26 08:49:37;;;;;;;13.60;3.00;;;8.30;99.90;;;-144.05;77.61;56993.25;5055718;28;20032;-77
2023/03/26 08:53:24;;;;;;;15.03;2.90;;;8.30;99.90;;;-144.05;77.25;56969.91;5055286;28;20025;-78
2023/03/26 08:56:18;;;;;;;14.70;3.15;;;8.30;99.90;;;-144.05;77.79;56986.91;5037994;28;20025;-76
2023/03/26 08:59:20;;;;;;;17.98;3.83;;;8.20;99.90;;;-144.05;77.56;56989.00;5036061;28;20127;-77
2023/03/26 09:02:35;;;;;;;13.88;3.75;;;8.20;99.90;;;-144.05;78.16;56963.53;5037759;28;20025;-77
2023/03/26 09:05:40;;;;;;;16.85;3.03;;;8.20;99.90;;;-144.05;77.38;56955.03;5056205;28;20052;-77
2023/03/26 09:09:32;;;;;;;16.90;3.28;;;8.20;99.90;;;-144.05;78.28;56957.16;5038140;28;20024;-76
2023/03/26 09:12:50;;;;;;;14.70;2.92;;;8.30;99.90;;;-144.05;78.39;56993.25;5042535;28;20108;-79
2023/03/26 09:15:46;;;;;;;16.20;3.22;;;8.30;99.90;;;-144.05;78.03;56957.16;5058656;28;20507;-77
2023/03/26 09:18:46;;;;;;;10.35;2.70;;;8.30;99.90;;;-144.05;78.02;56946.53;5038589;28;20047;-76
2023/03/26 09:21:53;;;;;;;21.23;3.60;;;8.40;99.90;;;-144.05;78.35;56957.16;5037632;28;20033;-78
2023/03/26 09:24:46;;;;;;;20.10;4.28;;;8.40;99.90;;;-144.05;78.38;56991.13;5037921;28;20025;-77
2023/03/26 09:28:10;;;;;;;11.95;3.38;;;8.40;99.90;;;-144.05;77.75;56976.28;5057581;28;20040;-77
2023/03/26 09:31:20;;;;;;;10.32;2.70;;;8.50;99.90;;;-144.05;78.45;56950.78;5047332;28;20507;-75
2023/03/26 09:33:59;;;;;;;16.98;3.17;;;8.50;99.90;;;-144.05;78.16;56955.03;5054908;28;20029;-76
2023/03/26 09:36:55;;;;;;;14.43;3.38;;;8.50;99.90;;;-144.05;78.45;56946.53;5056154;28;20025;-77
2023/03/26 09:39:41;;;;;;;13.00;2.42;;;8.60;99.90;;;-144.05;78.28;56957.16;5040479;28;20025;-77
2023/03/26 09:42:41;;;;;;;10.48;2.45;;;8.70;99.90;;;-144.05;77.85;56974.16;5042500;28;20039;-78
2023/03/26 09:45:59;;;;;;;14.75;3.67;;;8.70;99.90;;;-144.05;77.88;56982.66;5059047;28;20033;-77
2023/03/26 09:49:06;;;;;;;14.43;3.33;;;8.70;99.90;;;-144.05;78.02;56959.28;5056819;28;20104;-77
2023/03/26 09:51:50;;;;;;;16.83;3.42;;;8.70;99.90;;;-144.05;78.31;56984.78;5038327;28;20024;-76
2023/03/26 09:55:06;;;;;;;14.40;3.38;;;8.70;99.90;;;-144.05;77.84;56993.25;5059764;28;20107;-76
2023/03/26 09:58:30;;;;;;;13.07;3.45;;;8.70;99.90;;;-144.05;78.73;56963.53;5056912;28;20025;-78
2023/03/26 10:01:48;;;;;;;13.40;4.00;;;8.70;99.90;;;-144.05;78.23;56959.28;5059560;28;20408;-79
2023/03/26 10:04:58;;;;;;;12.32;2.90;;;8.80;99.90;;;-144.05;77.91;56952.91;4970926;28;20054;-76
2023/03/26 10:08:13;;;;;;;14.50;3.97;;;8.90;99.90;;;-144.05;77.88;56931.66;5057314;28;20377;-77
2023/03/26 10:11:19;;;;;;;15.38;3.03;;;9.00;99.90;;;-144.05;77.26;56957.16;5058277;28;20029;-76
2023/03/26 10:14:20;;;;;;;15.60;3.47;;;9.00;99.90;;;-144.05;77.38;56967.78;5053069;28;20039;-75
2023/03/26 10:17:01;;;;;;;14.30;2.95;;;9.20;99.90;;;-144.05;76.65;56952.91;5060955;28;20091;-75
2023/03/26 10:19:50;;;;;;;14.60;3.70;;;9.10;99.90;;;-144.05;76.75;56942.28;5059380;28;20028;-77
2023/03/26 10:23:08;;;;;;;10.52;2.92;;;9.30;99.90;;;-144.05;76.20;56955.03;5061331;28;20029;-78
2023/03/26 10:26:14;;;;;;;10.73;2.63;;;9.40;99.90;;;-144.05;76.14;56961.41;4963393;28;20049;-76
2023/03/26 10:28:55;;;;;;;18.00;3.47;;;9.50;99.90;;;-144.05;74.96;56974.16;4978513;28;20034;-77
2023/03/26 10:31:46;;;;;;;12.77;2.83;;;9.40;99.90;;;-144.05;74.82;56967.78;5051450;28;20033;-77
2023/03/26 10:34:42;;;;;;;12.32;3.38;;;9.40;99.90;;;-144.05;72.73;56948.66;5062036;28;20033;-79
2023/03/26 10:37:53;;;;;;;11.75;3.78;;;9.40;99.90;;;-144.05;72.95;56942.28;5060440;28;20029;-78
2023/03/26 10:41:12;;;;;;;14.52;3.00;;;9.40;99.90;;;-144.05;72.42;56978.41;5059673;28;20021;-76
2023/03/26 10:45:02;;;;;;;13.32;2.22;;;9.40;99.90;;;-144.05;71.27;56976.28;5061654;28;20029;-76
2023/03/26 10:48:34;;;;;;;9.32;2.42;;;9.30;99.90;;;-144.05;71.03;56925.28;4984611;28;20038;-77
2023/03/26 10:51:50;;;;;;;10.43;1.92;;;9.20;99.90;;;-144.05;73.40;56976.28;4981361;28;20067;-78
2023/03/26 10:54:33;;;;;;;7.50;2.28;;;9.10;99.90;;;-144.05;73.84;56955.03;5062357;28;20029;-76